Time;durP1;ratioP1;P1;durP2;ratioP2;P2;SDS_P1;SDS_P2;PMS_P1;PMS_P2;Temp;Humidity;BMP_temperature;BMP_pressure;BME280_temperature;BME280_humidity;BME280_pressure;Samples;Min_cycle;Max_cycle;Signal;HPM_P1;HPM_P2
2022/03/01 00:02:15;;;;;;;27.92;17.88;;;;;;;1.07;69.14;102751.81;4992486;28;20026;-57
2022/03/01 00:04:41;;;;;;;27.73;17.45;;;;;;;1.04;70.31;102743.19;4992628;28;20062;-58
2022/03/01 00:07:07;;;;;;;26.33;17.17;;;;;;;1.00;69.94;102742.75;4992782;28;20111;-60
2022/03/01 00:09:33;;;;;;;27.95;16.92;;;;;;;0.94;69.73;102740.81;4992356;28;20053;-58
2022/03/01 00:11:58;;;;;;;28.52;17.02;;;;;;;0.90;70.39;102740.31;4992558;28;20034;-59
2022/03/01 00:14:23;;;;;;;27.17;16.08;;;;;;;0.88;70.35;102752.47;4992511;28;20046;-57
2022/03/01 00:16:49;;;;;;;27.35;16.95;;;;;;;0.86;70.25;102754.53;4975154;28;20352;-58
2022/03/01 00:19:14;;;;;;;29.02;17.45;;;;;;;0.83;70.50;102746.75;4992678;28;20023;-58
2022/03/01 00:21:39;;;;;;;28.10;17.92;;;;;;;0.79;70.86;102746.31;4992463;28;20022;-56
2022/03/01 00:24:05;;;;;;;29.73;18.60;;;;;;;0.74;71.15;102752.34;4992015;28;20037;-58
2022/03/01 00:26:30;;;;;;;28.30;17.25;;;;;;;0.72;71.20;102748.09;4992621;28;20050;-57
2022/03/01 00:28:55;;;;;;;29.40;18.33;;;;;;;0.68;71.14;102754.97;4992248;28;20050;-58
2022/03/01 00:31:20;;;;;;;30.50;18.02;;;;;;;0.66;71.25;102762.50;4992431;28;20029;-58
2022/03/01 00:33:46;;;;;;;27.30;18.10;;;;;;;0.62;71.01;102757.41;4992628;28;20030;-59
2022/03/01 00:36:11;;;;;;;29.45;18.80;;;;;;;0.60;71.42;102756.78;4992197;28;20105;-60
2022/03/01 00:38:36;;;;;;;28.48;17.25;;;;;;;0.59;71.20;102752.38;4992786;28;20033;-57
2022/03/01 00:41:02;;;;;;;31.13;17.35;;;;;;;0.58;71.31;102747.09;4992107;28;20040;-59
2022/03/01 00:43:27;;;;;;;29.45;17.80;;;;;;;0.55;71.30;102747.50;4992139;28;20041;-56
2022/03/01 00:45:54;;;;;;;30.05;18.23;;;;;;;0.51;71.60;102748.91;4974662;28;20073;-57
2022/03/01 00:48:20;;;;;;;30.45;19.20;;;;;;;0.46;72.07;102752.22;4992389;28;20027;-57
2022/03/01 00:50:46;;;;;;;27.23;17.27;;;;;;;0.44;71.93;102743.38;4992465;28;20098;-59
2022/03/01 00:53:12;;;;;;;29.95;18.27;;;;;;;0.42;72.21;102737.31;4992319;28;20415;-58
2022/03/01 00:55:37;;;;;;;30.15;18.67;;;;;;;0.37;72.41;102739.75;4992594;28;20023;-59
2022/03/01 00:58:03;;;;;;;29.90;17.65;;;;;;;0.34;72.25;102740.97;4992664;28;20026;-58
2022/03/01 01:00:30;;;;;;;30.85;18.83;;;;;;;0.23;72.59;102730.56;4991976;28;20492;-58
2022/03/01 01:02:55;;;;;;;31.20;19.17;;;;;;;0.30;72.79;102735.06;4991998;28;20033;-58
2022/03/01 01:05:20;;;;;;;28.67;17.95;;;;;;;0.31;72.86;102749.50;4992596;28;20038;-59
2022/03/01 01:07:46;;;;;;;28.38;17.42;;;;;;;0.30;73.24;102745.09;4974878;28;20029;-58
2022/03/01 01:10:12;;;;;;;28.17;18.30;;;;;;;0.28;72.94;102749.91;4994967;28;20050;-58
2022/03/01 01:12:37;;;;;;;28.08;17.27;;;;;;;0.24;73.23;102746.69;4995758;28;20022;-58
2022/03/01 01:15:04;;;;;;;27.27;17.40;;;;;;;0.24;73.25;102745.88;4995731;28;20069;-56
2022/03/01 01:17:30;;;;;;;28.58;18.40;;;;;;;0.25;72.96;102747.56;4978238;28;20505;-58
2022/03/01 01:19:55;;;;;;;29.98;17.92;;;;;;;0.22;73.57;102746.06;4995728;28;20034;-59
2022/03/01 01:25:05;;;;;;;29.20;18.40;;;;;;;0.20;73.55;102750.84;4996021;28;20101;-58
2022/03/01 01:27:30;;;;;;;29.58;17.55;;;;;;;0.19;73.46;102748.34;4995462;28;20038;-57
2022/03/01 01:29:56;;;;;;;27.60;17.58;;;;;;;0.19;73.71;102735.56;4977642;28;20072;-58
2022/03/01 01:32:21;;;;;;;31.77;19.05;;;;;;;0.24;73.64;102737.69;4994927;28;20334;-56
2022/03/01 01:34:48;;;;;;;29.35;18.77;;;;;;;0.23;73.39;102734.16;4995479;28;20109;-57
2022/03/01 01:37:13;;;;;;;30.20;17.90;;;;;;;0.24;73.38;102746.69;4995320;28;20065;-59
2022/03/01 01:39:38;;;;;;;30.60;18.73;;;;;;;0.23;73.42;102742.31;4995521;28;20062;-58
2022/03/01 01:42:04;;;;;;;28.25;17.95;;;;;;;0.21;73.33;102747.09;4977783;28;20030;-57
2022/03/01 01:44:31;;;;;;;31.38;20.23;;;;;;;0.19;73.69;102751.06;4995244;28;20057;-57
2022/03/01 01:46:56;;;;;;;28.80;18.70;;;;;;;0.16;73.85;102738.66;4994950;28;20042;-58
2022/03/01 01:49:21;;;;;;;28.48;18.48;;;;;;;0.14;73.64;102738.84;4995192;28;20030;-55
2022/03/01 01:51:47;;;;;;;27.67;18.25;;;;;;;0.14;73.73;102747.00;4995414;28;20018;-58
2022/03/01 01:54:13;;;;;;;30.25;17.95;;;;;;;0.14;73.83;102740.75;4995381;28;20022;-58
2022/03/01 01:56:38;;;;;;;31.08;20.17;;;;;;;0.13;73.97;102736.31;4995149;28;20034;-57
2022/03/01 01:59:03;;;;;;;28.65;18.08;;;;;;;0.13;74.24;102742.59;4994604;28;20029;-57
2022/03/01 02:01:29;;;;;;;29.02;18.75;;;;;;;0.14;74.01;102743.47;4994324;28;20470;-56
2022/03/01 02:03:54;;;;;;;29.70;18.27;;;;;;;0.14;73.63;102740.75;4994690;28;20037;-59
2022/03/01 02:06:19;;;;;;;31.38;19.42;;;;;;;0.17;73.85;102742.22;4994816;28;20026;-59
2022/03/01 02:08:45;;;;;;;30.63;19.77;;;;;;;0.17;73.82;102739.50;4994649;28;20470;-57
2022/03/01 02:11:10;;;;;;;30.50;19.17;;;;;;;0.18;73.73;102728.41;4994786;28;20053;-58
2022/03/01 02:13:35;;;;;;;29.70;18.30;;;;;;;0.19;74.08;102724.66;4994640;28;20113;-57
2022/03/01 02:16:01;;;;;;;28.65;18.55;;;;;;;0.22;73.46;102728.88;4994824;28;20034;-57
2022/03/01 02:18:27;;;;;;;31.55;18.38;;;;;;;0.23;73.69;102731.44;4994913;28;20068;-58
2022/03/01 02:20:52;;;;;;;27.80;17.95;;;;;;;0.22;73.96;102732.47;4975573;28;20038;-57
2022/03/01 02:23:17;;;;;;;29.02;18.42;;;;;;;0.24;73.38;102733.09;4994250;28;20505;-58
2022/03/01 02:25:43;;;;;;;31.73;19.88;;;;;;;0.21;73.72;102728.06;4994699;28;20030;-58
2022/03/01 02:28:08;;;;;;;31.33;19.25;;;;;;;0.18;73.51;102724.88;4994450;28;20113;-57
2022/03/01 02:30:34;;;;;;;28.65;18.45;;;;;;;0.20;73.84;102737.25;4994304;28;20034;-58
2022/03/01 02:33:00;;;;;;;30.63;18.58;;;;;;;0.17;73.31;102731.34;4994280;28;20030;-57
2022/03/01 02:35:26;;;;;;;32.92;19.90;;;;;;;0.15;73.33;102735.09;4976613;28;20080;-57
2022/03/01 02:37:52;;;;;;;30.38;19.10;;;;;;;0.13;73.64;102736.31;4994438;28;20117;-57
2022/03/01 02:40:17;;;;;;;31.45;19.55;;;;;;;0.11;74.28;102730.22;4993952;28;20109;-56
2022/03/01 02:42:45;;;;;;;29.73;18.65;;;;;;;0.06;73.84;102725.34;4994230;28;20034;-58
2022/03/01 02:45:14;;;;;;;31.35;18.58;;;;;;;-0.02;73.88;102717.28;4994090;28;20022;-57
2022/03/01 02:47:40;;;;;;;30.25;19.70;;;;;;;0.03;74.14;102731.16;4993687;28;20046;-58
2022/03/01 02:50:08;;;;;;;29.55;18.60;;;;;;;-0.06;74.26;102714.09;4994311;28;20379;-58
2022/03/01 02:52:33;;;;;;;31.90;19.40;;;;;;;0.04;73.80;102723.84;4993911;28;20080;-58
2022/03/01 02:54:59;;;;;;;31.38;18.65;;;;;;;-0.02;73.83;102712.66;4994019;28;20490;-59
2022/03/01 02:57:25;;;;;;;29.13;18.58;;;;;;;0.01;73.93;102711.44;4993823;28;20501;-58
2022/03/01 02:59:51;;;;;;;30.55;17.77;;;;;;;0.04;73.67;102719.25;4993609;28;20402;-58
2022/03/01 03:02:17;;;;;;;29.70;19.40;;;;;;;0.02;74.34;102715.84;4993441;28;20537;-58
2022/03/01 03:04:42;;;;;;;31.55;19.00;;;;;;;0.06;73.96;102710.88;4994092;28;20030;-58
2022/03/01 03:07:07;;;;;;;27.70;17.88;;;;;;;0.06;74.02;102710.88;4993830;28;20031;-57
2022/03/01 03:12:01;;;;;;;30.95;19.77;;;;;;;0.10;74.00;102706.75;5011297;28;20402;-57
2022/03/01 03:14:26;;;;;;;31.02;19.35;;;;;;;0.11;73.63;102706.56;5013159;28;20044;-57
2022/03/01 03:16:52;;;;;;;28.98;18.10;;;;;;;0.11;74.20;102700.28;5011808;28;20026;-56
2022/03/01 03:19:17;;;;;;;31.08;19.58;;;;;;;0.13;73.91;102700.94;4995854;28;20181;-57
2022/03/01 03:21:44;;;;;;;31.10;18.13;;;;;;;0.12;74.32;102707.41;4995599;28;20029;-55
2022/03/01 03:24:10;;;;;;;30.60;19.05;;;;;;;0.10;74.04;102701.31;5013080;28;20030;-57
2022/03/01 03:26:35;;;;;;;29.85;18.67;;;;;;;0.11;74.05;102695.66;5012752;28;20415;-55
2022/03/01 03:29:01;;;;;;;31.55;19.38;;;;;;;0.10;74.21;102702.13;5012893;28;20109;-56
2022/03/01 03:31:26;;;;;;;29.13;17.88;;;;;;;0.11;74.02;102703.00;5012276;28;20160;-56
2022/03/01 03:33:51;;;;;;;30.98;19.45;;;;;;;0.09;74.07;102715.94;5013292;28;20076;-57
2022/03/01 03:36:17;;;;;;;31.10;19.17;;;;;;;0.09;74.04;102715.94;5013279;28;20107;-56
2022/03/01 03:38:43;;;;;;;30.35;18.73;;;;;;;0.06;74.10;102706.28;5013025;28;20211;-55
2022/03/01 03:41:08;;;;;;;30.70;19.00;;;;;;;0.02;74.15;102702.25;5012839;28;20385;-55
2022/03/01 03:43:34;;;;;;;30.92;18.40;;;;;;;0.02;74.37;102699.53;5012877;28;20036;-55
2022/03/01 03:45:59;;;;;;;29.75;18.60;;;;;;;0.00;74.90;102698.91;5012964;28;20026;-57
2022/03/01 03:48:25;;;;;;;30.25;18.92;;;;;;;0.00;74.71;102712.50;5012877;28;20101;-55
2022/03/01 03:50:50;;;;;;;32.15;18.30;;;;;;;-0.02;74.70;102703.69;5013113;28;20061;-56
2022/03/01 03:53:15;;;;;;;31.83;20.08;;;;;;;-0.01;74.75;102699.94;5012616;28;20026;-57
2022/03/01 03:55:41;;;;;;;29.38;17.25;;;;;;;-0.02;74.67;102698.25;5013284;28;20381;-57
2022/03/01 03:58:06;;;;;;;31.75;19.20;;;;;;;-0.02;74.72;102700.97;5012999;28;20021;-57
2022/03/01 04:00:32;;;;;;;33.05;19.00;;;;;;;-0.02;74.53;102703.69;4995131;28;20028;-57
2022/03/01 04:02:58;;;;;;;30.88;18.80;;;;;;;-0.03;74.48;102699.25;5012355;28;20026;-55
2022/03/01 04:05:23;;;;;;;30.80;18.48;;;;;;;-0.01;74.29;102697.19;5011242;28;20109;-56
2022/03/01 04:07:48;;;;;;;29.10;18.40;;;;;;;-0.01;74.07;102689.88;5012479;28;20022;-55
2022/03/01 04:10:14;;;;;;;32.17;18.70;;;;;;;0.02;74.28;102698.69;5012243;28;20221;-57
2022/03/01 04:12:40;;;;;;;31.95;18.73;;;;;;;0.04;74.20;102700.19;5012508;28;20030;-55
2022/03/01 04:15:07;;;;;;;30.40;18.88;;;;;;;0.05;74.64;102698.31;5012828;28;20041;-57
2022/03/01 04:17:32;;;;;;;31.48;20.65;;;;;;;0.05;74.60;102704.59;5012130;28;20030;-56
2022/03/01 04:19:58;;;;;;;30.25;18.63;;;;;;;0.06;74.90;102708.16;5012317;28;20040;-55
2022/03/01 04:22:24;;;;;;;31.65;19.17;;;;;;;0.08;74.64;102706.09;5012537;28;20462;-56
2022/03/01 04:24:49;;;;;;;30.73;19.35;;;;;;;0.09;74.91;102718.66;5012375;28;20406;-57
2022/03/01 04:27:15;;;;;;;29.23;19.17;;;;;;;0.09;74.04;102716.81;5012868;28;20026;-58
2022/03/01 04:29:40;;;;;;;28.23;18.52;;;;;;;0.13;73.88;102711.81;5012729;28;20037;-57
2022/03/01 04:32:05;;;;;;;30.20;18.95;;;;;;;0.12;74.85;102716.41;5012783;28;20045;-57
2022/03/01 04:34:31;;;;;;;29.52;19.00;;;;;;;0.13;74.17;102722.72;4994826;28;20026;-56
2022/03/01 04:36:56;;;;;;;30.80;18.92;;;;;;;0.14;74.24;102713.53;5012380;28;20425;-57
2022/03/01 04:39:21;;;;;;;31.30;18.98;;;;;;;0.13;74.28;102714.53;5012639;28;20029;-55
2022/03/01 04:41:48;;;;;;;29.15;18.67;;;;;;;0.11;74.06;102703.81;5012380;28;20036;-57
2022/03/01 04:44:14;;;;;;;32.70;19.80;;;;;;;0.15;74.16;102713.31;5014816;28;20030;-58
2022/03/01 04:46:40;;;;;;;31.17;19.23;;;;;;;0.17;74.66;102720.44;5016316;28;20037;-57
2022/03/01 04:49:05;;;;;;;31.42;19.80;;;;;;;0.17;74.71;102723.19;5016464;28;20030;-57
2022/03/01 04:51:30;;;;;;;30.70;19.88;;;;;;;0.18;74.69;102717.53;5016282;28;20484;-56
2022/03/01 04:53:56;;;;;;;30.45;19.30;;;;;;;0.18;74.54;102724.88;5016210;28;20026;-56
2022/03/01 04:56:21;;;;;;;29.50;20.08;;;;;;;0.18;74.87;102712.09;5016679;28;20025;-59
2022/03/01 04:58:47;;;;;;;31.88;20.13;;;;;;;0.20;74.83;102711.88;5016047;28;20163;-57
2022/03/01 05:01:12;;;;;;;29.35;18.15;;;;;;;0.20;74.14;102715.47;5016454;28;20538;-57
2022/03/01 05:03:37;;;;;;;31.40;19.42;;;;;;;0.21;74.07;102705.41;5015451;28;20056;-57
2022/03/01 05:06:02;;;;;;;31.23;19.92;;;;;;;0.17;74.39;102694.06;5015760;28;20045;-56
2022/03/01 05:08:30;;;;;;;31.30;20.83;;;;;;;0.23;74.47;102700.63;5016018;28;20067;-57
2022/03/01 05:10:59;;;;;;;31.48;19.33;;;;;;;0.24;74.06;102697.69;5015583;28;20056;-58
2022/03/01 05:13:25;;;;;;;31.83;18.60;;;;;;;0.25;73.72;102693.13;5016355;28;20548;-58
2022/03/01 05:15:50;;;;;;;31.60;20.27;;;;;;;0.26;74.17;102694.81;5015412;28;20072;-57
2022/03/01 05:18:15;;;;;;;30.35;18.98;;;;;;;0.24;74.52;102697.69;5016225;28;20033;-57
2022/03/01 05:20:41;;;;;;;32.38;20.50;;;;;;;0.26;74.45;102702.97;5015264;28;20034;-56
2022/03/01 05:23:06;;;;;;;31.45;20.50;;;;;;;0.23;73.86;102701.47;5015488;28;20044;-57
2022/03/01 05:25:31;;;;;;;31.20;19.50;;;;;;;0.23;74.39;102703.34;5015335;28;20025;-57
2022/03/01 05:27:57;;;;;;;29.77;19.45;;;;;;;0.22;74.14;102696.22;5015340;28;20101;-57
2022/03/01 05:30:23;;;;;;;29.67;19.73;;;;;;;0.21;74.32;102698.09;5015434;28;20136;-58
2022/03/01 05:32:51;;;;;;;29.30;19.00;;;;;;;0.22;74.74;102702.53;5015616;28;20385;-57
2022/03/01 05:35:19;;;;;;;29.77;19.52;;;;;;;0.22;74.53;102690.75;5015063;28;20033;-57
2022/03/01 05:37:47;;;;;;;31.42;20.35;;;;;;;0.22;74.85;102685.31;5015043;28;20030;-56
2022/03/01 05:40:13;;;;;;;31.77;20.52;;;;;;;0.23;74.48;102674.25;5015416;28;20040;-57
2022/03/01 05:42:38;;;;;;;31.75;19.83;;;;;;;0.23;73.80;102671.53;5015365;28;20030;-56
2022/03/01 05:45:05;;;;;;;30.90;19.98;;;;;;;0.25;73.93;102674.06;5015282;28;20061;-56
2022/03/01 05:47:30;;;;;;;30.60;19.40;;;;;;;0.23;74.23;102677.00;5014724;28;20022;-56
2022/03/01 05:49:56;;;;;;;31.15;19.20;;;;;;;0.24;74.20;102672.38;4996969;28;20037;-55
2022/03/01 05:52:22;;;;;;;31.83;20.30;;;;;;;0.27;74.65;102669.28;5014597;28;20053;-56
2022/03/01 05:54:47;;;;;;;32.95;19.20;;;;;;;0.25;73.95;102674.06;5014812;28;20029;-57
2022/03/01 05:57:13;;;;;;;32.90;19.80;;;;;;;0.27;74.01;102663.84;5014976;28;20034;-55
2022/03/01 05:59:38;;;;;;;32.17;20.48;;;;;;;0.22;74.12;102669.00;5014671;28;20101;-57
2022/03/01 06:02:04;;;;;;;29.40;19.67;;;;;;;0.22;73.69;102667.13;4997302;28;20080;-57
2022/03/01 06:04:29;;;;;;;31.25;19.73;;;;;;;0.21;74.14;102670.03;4996780;28;20113;-56
2022/03/01 06:06:54;;;;;;;32.53;20.15;;;;;;;0.18;74.00;102665.81;5014957;28;20390;-57
2022/03/01 06:09:20;;;;;;;31.77;20.23;;;;;;;0.12;73.92;102667.41;5014357;28;20026;-56
2022/03/01 06:11:45;;;;;;;30.77;19.15;;;;;;;0.04;74.19;102656.66;5006984;28;20474;-57
2022/03/01 06:14:10;;;;;;;31.08;19.17;;;;;;;0.08;73.96;102668.00;5000338;28;20022;-56
2022/03/01 06:16:36;;;;;;;30.45;18.42;;;;;;;0.04;74.14;102669.41;4994915;28;20030;-57
2022/03/01 06:19:02;;;;;;;32.00;20.33;;;;;;;0.02;74.07;102666.03;5023564;28;20026;-58
2022/03/01 06:21:27;;;;;;;30.02;20.60;;;;;;;0.00;74.38;102663.53;5015034;28;20115;-57
2022/03/01 06:23:53;;;;;;;30.27;19.95;;;;;;;-0.03;75.00;102670.16;5014495;28;20480;-56
2022/03/01 06:26:18;;;;;;;29.80;19.98;;;;;;;-0.03;74.57;102675.59;5014643;28;20030;-56
2022/03/01 06:28:44;;;;;;;32.67;20.50;;;;;;;-0.03;74.39;102675.59;5014533;28;20524;-58
2022/03/01 06:31:09;;;;;;;31.88;20.08;;;;;;;-0.05;74.47;102674.94;5014356;28;20026;-55
2022/03/01 06:33:34;;;;;;;30.75;19.40;;;;;;;-0.05;75.00;102672.22;5014545;28;20021;-57
2022/03/01 06:36:00;;;;;;;35.20;19.95;;;;;;;-0.03;74.99;102666.63;5014626;28;20117;-57
2022/03/01 06:38:26;;;;;;;30.45;19.48;;;;;;;-0.02;74.61;102673.75;5014607;28;20485;-57
2022/03/01 06:40:55;;;;;;;29.58;19.00;;;;;;;-0.02;75.17;102671.03;5014151;28;20076;-57
2022/03/01 06:43:21;;;;;;;30.02;19.77;;;;;;;-0.01;74.93;102678.16;5014335;28;20048;-57
2022/03/01 06:45:46;;;;;;;30.75;19.52;;;;;;;0.05;74.78;102690.16;5014595;28;20462;-57
2022/03/01 06:48:12;;;;;;;30.15;18.50;;;;;;;0.08;74.86;102698.78;5014263;28;20046;-56
2022/03/01 06:50:37;;;;;;;31.25;19.17;;;;;;;0.15;75.56;102698.84;5014437;28;20109;-57
2022/03/01 06:53:02;;;;;;;29.42;19.08;;;;;;;0.18;74.49;102698.47;5013959;28;20033;-57
2022/03/01 06:55:28;;;;;;;32.88;19.50;;;;;;;0.23;74.59;102700.63;5014234;28;20131;-56
2022/03/01 06:57:53;;;;;;;31.02;20.02;;;;;;;0.29;74.56;102703.44;5014226;28;20026;-57
2022/03/01 07:00:19;;;;;;;32.10;19.95;;;;;;;0.37;74.58;102715.25;4996483;28;20061;-56
2022/03/01 07:02:44;;;;;;;31.40;19.45;;;;;;;0.44;74.39;102716.16;5014180;28;20466;-58
2022/03/01 07:05:12;;;;;;;30.13;19.63;;;;;;;0.49;74.25;102721.88;5014051;28;20030;-58
2022/03/01 07:07:38;;;;;;;30.55;18.95;;;;;;;0.53;74.24;102711.44;5013549;28;20022;-58
2022/03/01 07:10:05;;;;;;;33.15;20.70;;;;;;;0.60;73.85;102724.09;5013905;28;20045;-56
2022/03/01 07:12:31;;;;;;;30.80;18.88;;;;;;;0.68;73.90;102722.28;5013844;28;20543;-57
2022/03/01 07:14:56;;;;;;;30.92;19.73;;;;;;;0.76;73.22;102720.28;5014013;28;20022;-57
2022/03/01 07:17:21;;;;;;;30.10;18.23;;;;;;;0.85;72.79;102715.56;5013680;28;20493;-57
2022/03/01 07:19:47;;;;;;;30.17;18.60;;;;;;;0.95;72.58;102717.94;5013451;28;20044;-57
2022/03/01 07:22:12;;;;;;;33.00;19.02;;;;;;;1.00;72.51;102728.25;5014267;28;20037;-57
2022/03/01 07:24:38;;;;;;;31.50;18.90;;;;;;;1.12;73.16;102720.41;5013335;28;20385;-56
2022/03/01 07:27:03;;;;;;;32.13;19.50;;;;;;;1.18;72.07;102711.44;5013529;28;20022;-57
2022/03/01 07:29:30;;;;;;;28.63;17.75;;;;;;;1.22;71.64;102705.38;5013535;28;20041;-57
2022/03/01 07:31:57;;;;;;;32.95;19.95;;;;;;;1.27;71.50;102710.25;5013810;28;20041;-62
2022/03/01 07:34:22;;;;;;;31.00;19.15;;;;;;;1.33;71.37;102722.25;4996261;28;20389;-57
2022/03/01 07:36:47;;;;;;;31.60;18.77;;;;;;;1.42;71.69;102720.25;4995882;28;20029;-56
2022/03/01 07:39:13;;;;;;;33.25;19.27;;;;;;;1.46;70.84;102716.91;5013417;28;20033;-56
2022/03/01 07:41:38;;;;;;;30.63;19.27;;;;;;;1.51;71.16;102717.16;5013466;28;20022;-57
2022/03/01 07:44:04;;;;;;;31.75;19.92;;;;;;;1.58;71.64;102728.13;5013525;28;20037;-58
2022/03/01 07:46:29;;;;;;;32.78;19.13;;;;;;;1.65;70.75;102725.44;5013526;28;20508;-57
2022/03/01 07:48:54;;;;;;;31.15;19.23;;;;;;;1.73;70.70;102735.34;5013387;28;20050;-57
2022/03/01 07:51:19;;;;;;;29.67;19.13;;;;;;;1.78;70.49;102730.13;5013479;28;20109;-57
2022/03/01 07:53:45;;;;;;;32.25;18.55;;;;;;;1.83;70.42;102731.22;5013174;28;20073;-57
2022/03/01 07:56:10;;;;;;;29.23;18.63;;;;;;;1.87;70.54;102726.19;5013080;28;20037;-57
2022/03/01 07:58:35;;;;;;;31.75;18.88;;;;;;;1.87;69.90;102726.19;5013318;28;20081;-57
2022/03/01 08:01:01;;;;;;;29.58;18.05;;;;;;;1.84;69.53;102718.41;5013313;28;20026;-57
2022/03/01 08:03:26;;;;;;;30.58;18.52;;;;;;;1.86;69.86;102732.69;5013300;28;20034;-55
2022/03/01 08:05:52;;;;;;;29.15;17.77;;;;;;;1.87;70.90;102727.03;5012916;28;20030;-56
2022/03/01 08:08:17;;;;;;;30.10;18.63;;;;;;;1.86;69.87;102724.50;5013278;28;20105;-57
2022/03/01 08:10:42;;;;;;;29.50;19.15;;;;;;;1.84;69.83;102723.84;5032616;28;20053;-58
2022/03/01 08:13:08;;;;;;;30.38;19.42;;;;;;;1.85;70.69;102726.38;5032865;28;20492;-57
2022/03/01 08:15:33;;;;;;;30.30;19.25;;;;;;;1.90;70.26;102733.13;5032133;28;20021;-57
2022/03/01 08:17:59;;;;;;;31.48;19.40;;;;;;;1.96;70.42;102721.41;5032970;28;20021;-57
2022/03/01 08:20:26;;;;;;;32.25;20.05;;;;;;;2.00;69.77;102737.16;5016628;28;20497;-57
2022/03/01 08:22:52;;;;;;;28.92;19.23;;;;;;;2.06;70.08;102735.53;5018600;28;20021;-59
2022/03/01 08:25:18;;;;;;;32.83;20.50;;;;;;;2.12;69.91;102721.09;5036859;28;20523;-57
2022/03/01 08:27:44;;;;;;;30.52;19.92;;;;;;;2.16;69.05;102721.50;5036949;28;20504;-59
2022/03/01 08:30:10;;;;;;;29.10;18.45;;;;;;;2.25;70.01;102731.22;5037001;28;20128;-56
2022/03/01 08:32:37;;;;;;;30.30;18.70;;;;;;;2.31;69.49;102732.28;5033764;28;20579;-56
2022/03/01 08:35:04;;;;;;;31.45;19.65;;;;;;;2.42;69.43;102739.06;5036609;28;20117;-57
2022/03/01 08:37:29;;;;;;;31.23;19.95;;;;;;;2.53;69.39;102743.94;5036668;28;20113;-57
2022/03/01 08:39:55;;;;;;;28.33;19.27;;;;;;;2.61;69.25;102749.22;5015890;28;20116;-55
2022/03/01 08:42:20;;;;;;;30.42;18.63;;;;;;;2.69;68.59;102745.44;5014077;28;20175;-56
2022/03/01 08:44:45;;;;;;;30.30;19.17;;;;;;;2.75;68.44;102739.16;5014626;28;20030;-56
2022/03/01 08:47:11;;;;;;;29.95;18.42;;;;;;;2.87;67.87;102735.81;5014619;28;20064;-56
2022/03/01 08:49:36;;;;;;;27.88;18.10;;;;;;;2.93;67.21;102737.72;5014626;28;20038;-57
2022/03/01 08:52:02;;;;;;;29.73;18.45;;;;;;;3.01;67.92;102748.44;5014643;28;20042;-57
2022/03/01 08:54:27;;;;;;;30.27;18.23;;;;;;;3.12;67.60;102742.34;5014422;28;20034;-56
2022/03/01 08:56:53;;;;;;;29.40;18.25;;;;;;;3.23;66.99;102734.59;5012645;28;20034;-56
2022/03/01 08:59:18;;;;;;;29.40;18.88;;;;;;;3.34;66.49;102753.09;5014468;28;20022;-56
2022/03/01 09:01:44;;;;;;;31.75;18.00;;;;;;;3.45;66.89;102751.63;4996736;28;20029;-56
2022/03/01 09:04:09;;;;;;;30.95;18.73;;;;;;;3.53;65.75;102753.31;5014391;28;20412;-56
2022/03/01 09:06:34;;;;;;;30.60;18.45;;;;;;;3.65;65.97;102765.28;5014193;28;20064;-56
2022/03/01 09:09:00;;;;;;;30.23;19.70;;;;;;;3.76;66.10;102766.56;5014293;28;20033;-57
2022/03/01 09:11:25;;;;;;;31.63;19.08;;;;;;;3.88;65.06;102770.31;4996257;28;20104;-56
2022/03/01 09:13:50;;;;;;;29.67;19.52;;;;;;;3.98;64.35;102769.00;5014256;28;20061;-57
2022/03/01 09:16:16;;;;;;;32.42;20.60;;;;;;;4.10;64.52;102770.06;5014041;28;20476;-56
2022/03/01 09:18:41;;;;;;;32.08;19.92;;;;;;;4.16;64.42;102766.44;5014248;28;20394;-58
2022/03/01 09:21:07;;;;;;;31.02;20.52;;;;;;;4.31;63.77;102771.66;5014099;28;20069;-56
2022/03/01 09:23:33;;;;;;;32.40;20.25;;;;;;;4.47;63.95;102773.06;5013880;28;20050;-56
2022/03/01 09:25:58;;;;;;;29.52;19.92;;;;;;;4.65;62.71;102769.63;5013928;28;20069;-58
2022/03/01 09:28:24;;;;;;;26.95;17.25;;;;;;;4.86;62.24;102759.41;4992069;28;20057;-55
2022/03/01 09:30:50;;;;;;;32.00;19.05;;;;;;;5.04;61.69;102755.06;5004070;28;20038;-57
2022/03/01 09:33:15;;;;;;;28.17;17.60;;;;;;;5.11;60.23;102753.94;5013891;28;20064;-57
2022/03/01 09:35:41;;;;;;;27.38;17.40;;;;;;;5.13;59.95;102753.72;5013622;28;20087;-57
2022/03/01 09:38:07;;;;;;;28.25;17.90;;;;;;;5.13;59.78;102746.31;5013591;28;20034;-57
2022/03/01 09:40:32;;;;;;;27.98;18.30;;;;;;;5.19;60.53;102746.50;4996060;28;20415;-57
2022/03/01 09:42:57;;;;;;;29.25;17.88;;;;;;;5.27;60.10;102757.22;4995796;28;20038;-57
2022/03/01 09:45:23;;;;;;;28.23;17.17;;;;;;;5.37;60.95;102754.81;4995869;28;20026;-57
2022/03/01 09:47:49;;;;;;;29.88;18.20;;;;;;;5.43;59.04;102748.41;5013196;28;20040;-56
2022/03/01 09:50:15;;;;;;;29.10;17.90;;;;;;;5.48;59.16;102753.22;5013559;28;20026;-55
2022/03/01 09:52:41;;;;;;;27.38;18.10;;;;;;;5.57;59.31;102759.28;5013244;28;20029;-56
2022/03/01 09:55:08;;;;;;;27.75;17.90;;;;;;;5.64;59.27;102765.56;5013270;28;20034;-54
2022/03/01 09:57:33;;;;;;;27.42;17.92;;;;;;;5.71;58.37;102760.81;4994100;28;20030;-55
2022/03/01 09:59:59;;;;;;;28.85;18.17;;;;;;;5.75;57.65;102762.06;5013178;28;20470;-56
2022/03/01 10:02:35;;;;;;;28.98;18.80;;;;;;;5.78;58.43;102752.53;5013236;28;20025;-56
2022/03/01 10:05:02;;;;;;;28.80;17.55;;;;;;;5.86;57.27;102762.34;5013056;28;20053;-56
2022/03/01 10:07:29;;;;;;;28.92;17.80;;;;;;;5.86;56.79;102757.72;4995657;28;20037;-56
2022/03/01 10:10:06;;;;;;;29.25;17.92;;;;;;;5.85;56.60;102775.25;5012713;28;20116;-56
2022/03/01 10:12:31;;;;;;;26.98;17.30;;;;;;;5.82;55.68;102766.66;5012860;28;20042;-56
2022/03/01 10:15:02;;;;;;;27.67;16.95;;;;;;;5.68;56.81;102746.72;5012991;28;20021;-56
2022/03/01 10:17:45;;;;;;;27.95;17.52;;;;;;;5.76;56.73;102757.41;5012896;28;20183;-56
2022/03/01 10:20:15;;;;;;;27.05;17.73;;;;;;;5.83;56.62;102769.16;5012850;28;20045;-56
2022/03/01 10:22:45;;;;;;;29.80;18.08;;;;;;;5.83;56.77;102758.16;5012921;28;20056;-56
2022/03/01 10:25:12;;;;;;;26.75;18.05;;;;;;;5.92;56.95;102776.03;5012849;28;20022;-56
2022/03/01 10:27:37;;;;;;;27.27;17.65;;;;;;;5.97;57.18;102766.28;5012615;28;20553;-57
2022/03/01 10:30:07;;;;;;;28.50;18.13;;;;;;;6.05;57.10;102763.25;5012726;28;20034;-54
2022/03/01 10:32:33;;;;;;;29.58;18.60;;;;;;;6.16;57.42;102754.25;5012555;28;20026;-56
2022/03/01 10:35:09;;;;;;;27.15;17.38;;;;;;;6.20;57.42;102738.16;5012532;28;20512;-55
2022/03/01 10:37:37;;;;;;;29.48;18.42;;;;;;;6.33;56.39;102746.22;5012646;28;20534;-58
2022/03/01 10:40:14;;;;;;;27.15;17.23;;;;;;;6.42;56.74;102749.50;5012093;28;20401;-56
2022/03/01 10:42:40;;;;;;;29.33;17.70;;;;;;;6.49;55.10;102749.41;5011678;28;20041;-56
2022/03/01 10:45:07;;;;;;;28.55;17.30;;;;;;;6.59;55.80;102744.22;5012359;28;20112;-56
2022/03/01 10:47:32;;;;;;;26.30;16.45;;;;;;;6.73;55.51;102750.38;5012457;28;20053;-56
2022/03/01 10:50:04;;;;;;;27.02;18.10;;;;;;;6.71;56.20;102728.56;5012335;28;20053;-56
2022/03/01 10:52:41;;;;;;;29.42;18.00;;;;;;;6.86;55.43;102744.66;5012239;28;20034;-56
2022/03/01 10:55:27;;;;;;;26.75;17.30;;;;;;;6.92;56.34;102734.63;5012220;28;20060;-57
2022/03/01 10:58:12;;;;;;;27.25;17.67;;;;;;;7.03;56.07;102747.59;5010637;28;20037;-56
2022/03/01 11:00:39;;;;;;;27.80;18.20;;;;;;;7.08;55.51;102762.56;5012233;28;20397;-56
2022/03/01 11:03:08;;;;;;;27.27;18.60;;;;;;;7.15;54.02;102768.81;5012042;28;20436;-57
2022/03/01 11:05:35;;;;;;;28.25;17.67;;;;;;;7.24;54.41;102764.63;4994269;28;20553;-56
2022/03/01 11:08:04;;;;;;;27.63;17.73;;;;;;;7.27;54.33;102766.91;5011879;28;20030;-56
2022/03/01 11:10:31;;;;;;;28.55;18.55;;;;;;;7.40;55.31;102754.00;5011448;28;20054;-55
2022/03/01 11:13:00;;;;;;;29.70;18.67;;;;;;;7.53;54.81;102753.78;5012705;28;20045;-56
2022/03/01 11:15:53;;;;;;;29.52;18.38;;;;;;;7.60;54.86;102756.41;5004699;28;20030;-56
2022/03/01 11:18:43;;;;;;;26.92;17.55;;;;;;;7.67;55.33;102756.28;4992784;28;20038;-54